Time;durP1;ratioP1;P1;durP2;ratioP2;P2;SDS_P1;SDS_P2;PMS_P1;PMS_P2;Temp;Humidity;BMP_temperature;BMP_pressure;BME280_temperature;BME280_humidity;BME280_pressure;Samples;Min_cycle;Max_cycle;Signal;HPM_P1;HPM_P2
2021/10/24 00:02:25;;;;;;;14.87;5.45;;;;;;;7.80;58.33;99913.77;1773649;80;21108;-37
2021/10/24 00:04:51;;;;;;;14.90;5.08;;;;;;;7.92;58.16;99915.22;1773533;80;20970;-37
2021/10/24 00:07:18;;;;;;;8.55;4.35;;;;;;;7.93;58.12;99911.96;1745933;80;21536;-37
2021/10/24 00:09:44;;;;;;;10.28;4.55;;;;;;;7.93;58.07;99918.16;1773853;80;20931;-37
2021/10/24 00:12:11;;;;;;;8.83;4.40;;;;;;;7.93;58.20;99918.16;1773801;80;21442;-37
2021/10/24 00:14:38;;;;;;;12.37;4.60;;;;;;;7.93;58.02;99910.05;1773814;80;21136;-38
2021/10/24 00:17:05;;;;;;;9.93;4.70;;;;;;;7.91;58.13;99907.44;1773664;80;21552;-37
2021/10/24 00:19:33;;;;;;;10.63;4.40;;;;;;;7.86;58.21;99906.52;1773485;80;20892;-37
2021/10/24 00:22:00;;;;;;;13.03;4.58;;;;;;;7.84;58.30;99914.72;1773621;80;20965;-38
2021/10/24 00:24:27;;;;;;;8.65;4.55;;;;;;;7.82;58.44;99908.84;1773526;80;21030;-37
2021/10/24 00:26:55;;;;;;;10.58;4.35;;;;;;;7.81;58.57;99909.95;1773468;80;20935;-37
2021/10/24 00:29:22;;;;;;;9.55;4.83;;;;;;;7.80;58.53;99911.07;1773580;80;20988;-37
2021/10/24 00:31:48;;;;;;;9.55;4.37;;;;;;;7.77;58.58;99907.13;1773725;80;21042;-37
2021/10/24 00:34:15;;;;;;;10.38;4.67;;;;;;;7.75;58.86;99907.21;1773620;80;21569;-36
2021/10/24 00:36:42;;;;;;;9.90;5.03;;;;;;;7.73;58.87;99905.41;1773663;80;21042;-37
2021/10/24 00:39:08;;;;;;;11.93;4.97;;;;;;;7.72;58.97;99905.97;1773747;80;21117;-37
2021/10/24 00:41:36;;;;;;;9.38;4.83;;;;;;;7.71;59.20;99913.03;1773572;80;21024;-37
2021/10/24 00:44:24;;;;;;;8.40;4.00;;;;;;;7.66;59.26;99905.92;1773628;80;21034;-37
2021/10/24 00:46:55;;;;;;;9.93;3.83;;;;;;;7.72;59.21;99911.92;1773065;80;21544;-37
2021/10/24 00:49:23;;;;;;;8.83;4.60;;;;;;;7.79;59.07;99909.52;1773682;80;21552;-37
2021/10/24 00:51:51;;;;;;;9.98;4.60;;;;;;;7.85;58.88;99916.28;1773602;79;21134;-37
2021/10/24 00:54:24;;;;;;;8.58;4.37;;;;;;;7.86;58.88;99920.56;1773598;80;20967;-37
2021/10/24 00:56:53;;;;;;;10.32;4.72;;;;;;;7.86;58.84;99924.06;1773790;80;21018;-37
2021/10/24 00:59:21;;;;;;;8.30;4.45;;;;;;;7.84;58.89;99922.82;1774034;80;20939;-37
2021/10/24 01:01:49;;;;;;;10.18;4.70;;;;;;;7.82;58.88;99921.78;1774108;80;21039;-37
2021/10/24 01:04:16;;;;;;;12.05;4.87;;;;;;;7.81;59.13;99930.20;1773917;80;21135;-37
2021/10/24 01:06:45;;;;;;;10.28;4.70;;;;;;;7.78;58.99;99924.13;1773655;80;20927;-37
2021/10/24 01:09:17;;;;;;;11.20;5.10;;;;;;;7.77;59.08;99931.98;1773600;80;20943;-37
2021/10/24 01:11:45;;;;;;;11.50;4.90;;;;;;;7.75;59.15;99932.84;1773468;80;20938;-37
2021/10/24 01:14:12;;;;;;;11.45;5.08;;;;;;;7.69;59.38;99927.43;1745409;80;20987;-37
2021/10/24 01:16:42;;;;;;;10.23;5.10;;;;;;;7.66;59.30;99937.51;1773288;80;21140;-37
2021/10/24 01:19:11;;;;;;;11.68;4.62;;;;;;;7.64;59.48;99941.11;1773690;80;21023;-37
2021/10/24 01:21:39;;;;;;;10.72;4.67;;;;;;;7.62;59.49;99943.33;1773544;80;20936;-37
2021/10/24 01:24:06;;;;;;;8.90;4.12;;;;;;;7.55;59.64;99949.80;1773474;80;21337;-37
2021/10/24 01:26:36;;;;;;;11.68;4.58;;;;;;;7.20;59.63;99892.52;1773684;80;21643;-37
2021/10/24 01:29:04;;;;;;;;;;;;;;;7.60;59.66;99938.83;1776407;80;23388;-37
2021/10/24 01:31:30;;;;;;;9.40;4.20;;;;;;;7.61;59.60;99945.78;1773539;80;20132;-37
2021/10/24 01:33:57;;;;;;;10.23;4.53;;;;;;;7.47;59.90;99943.31;1773539;80;20959;-37
2021/10/24 01:36:25;;;;;;;12.60;4.90;;;;;;;7.47;59.98;99950.06;1773547;80;20967;-37
2021/10/24 01:38:52;;;;;;;8.10;4.42;;;;;;;7.47;60.03;99952.76;1773784;80;20987;-37
2021/10/24 01:41:23;;;;;;;13.13;4.83;;;;;;;7.48;60.02;99956.25;1773848;80;21524;-37
2021/10/24 01:43:50;;;;;;;13.25;4.80;;;;;;;7.46;59.99;99951.73;1773660;80;20931;-37
2021/10/24 01:46:17;;;;;;;11.45;4.67;;;;;;;7.42;60.06;99952.38;1773737;80;20994;-37
2021/10/24 01:48:44;;;;;;;11.78;4.40;;;;;;;7.39;60.16;99959.78;1773633;80;21002;-37
2021/10/24 01:51:11;;;;;;;11.28;4.62;;;;;;;7.34;60.26;99956.47;1773627;79;21078;-37
2021/10/24 01:53:40;;;;;;;12.45;5.17;;;;;;;7.29;60.47;99957.99;1773768;80;21963;-37
2021/10/24 01:56:07;;;;;;;13.23;4.60;;;;;;;7.23;60.68;99961.42;1773726;80;20966;-37
2021/10/24 01:58:35;;;;;;;10.18;4.30;;;;;;;7.19;60.77;99961.03;1773544;80;20939;-37
2021/10/24 02:01:04;;;;;;;12.05;4.75;;;;;;;7.21;60.79;99970.37;1773595;80;20970;-37
2021/10/24 02:03:49;;;;;;;11.40;4.05;;;;;;;7.25;60.83;99970.55;1773631;80;21010;-37
2021/10/24 02:06:31;;;;;;;10.68;4.55;;;;;;;7.19;60.86;99979.36;1772502;80;21132;-37
2021/10/24 02:08:57;;;;;;;11.53;4.37;;;;;;;7.14;61.04;99977.39;1773557;80;21544;-37
2021/10/24 02:11:24;;;;;;;9.75;4.55;;;;;;;7.12;61.11;99975.00;1773618;80;21081;-37
2021/10/24 02:13:51;;;;;;;10.23;4.35;;;;;;;7.10;61.19;99985.33;1773734;80;20979;-37
2021/10/24 02:16:19;;;;;;;11.70;5.00;;;;;;;7.10;61.28;99990.73;1773757;80;21074;-37
2021/10/24 02:18:47;;;;;;;11.00;5.00;;;;;;;7.12;61.30;99993.87;1773740;80;21806;-37
2021/10/24 02:21:14;;;;;;;11.22;4.78;;;;;;;7.13;61.34;99995.47;1773969;80;21493;-37
2021/10/24 02:23:41;;;;;;;12.58;4.90;;;;;;;7.12;61.21;99992.52;1773901;80;21014;-37
2021/10/24 02:26:10;;;;;;;11.60;4.78;;;;;;;7.08;61.35;99998.88;1774125;80;21030;-37
2021/10/24 02:28:38;;;;;;;12.03;4.80;;;;;;;7.10;61.47;100001.52;1773839;80;21022;-37
2021/10/24 02:31:06;;;;;;;10.13;3.95;;;;;;;7.18;61.31;100007.43;1774001;80;21149;-37
2021/10/24 02:33:51;;;;;;;11.22;4.50;;;;;;;7.22;61.23;100012.41;1773815;80;21536;-37
2021/10/24 02:36:19;;;;;;;11.45;4.30;;;;;;;7.21;61.31;100006.02;1751837;80;21038;-37
2021/10/24 02:38:48;;;;;;;12.43;4.97;;;;;;;7.21;61.41;100011.41;1772518;80;21018;-37
2021/10/24 02:41:15;;;;;;;12.70;4.60;;;;;;;7.19;61.36;100014.41;1773809;80;21029;-37
2021/10/24 02:43:44;;;;;;;12.73;4.97;;;;;;;7.18;61.35;100011.48;1773717;80;21144;-37
2021/10/24 02:46:12;;;;;;;10.55;4.67;;;;;;;7.17;61.43;100012.58;1773663;80;21018;-37
2021/10/24 02:48:39;;;;;;;8.65;4.55;;;;;;;7.16;61.54;100021.02;1773611;80;20998;-37
2021/10/24 02:51:06;;;;;;;12.23;4.40;;;;;;;7.13;61.53;100023.78;1774951;79;21533;-37
2021/10/24 02:53:33;;;;;;;10.40;4.40;;;;;;;7.11;61.43;100020.63;1776628;80;21031;-37
2021/10/24 02:56:02;;;;;;;10.32;4.30;;;;;;;7.09;61.57;100018.80;1776689;80;21856;-37
2021/10/24 02:58:29;;;;;;;7.10;3.90;;;;;;;7.12;61.55;100020.84;1776564;80;20915;-37
2021/10/24 03:00:57;;;;;;;11.68;4.55;;;;;;;7.20;61.64;100020.60;1776578;80;21074;-37
2021/10/24 03:03:23;;;;;;;10.63;4.47;;;;;;;7.25;61.54;100015.84;1776881;80;21017;-37
2021/10/24 03:05:51;;;;;;;13.05;4.58;;;;;;;7.27;61.49;100020.34;1777015;80;21006;-37
2021/10/24 03:08:19;;;;;;;11.35;4.45;;;;;;;7.26;61.40;100016.05;1776887;80;21188;-36
2021/10/24 03:10:46;;;;;;;10.20;4.70;;;;;;;7.25;61.42;100024.48;1776674;80;20908;-37
2021/10/24 03:13:15;;;;;;;12.90;5.03;;;;;;;7.23;61.49;100024.79;1776900;80;21572;-37
2021/10/24 03:15:45;;;;;;;11.97;4.85;;;;;;;7.19;61.59;100026.55;1776738;80;21500;-37
2021/10/24 03:18:13;;;;;;;11.10;4.70;;;;;;;7.17;61.75;100029.31;1776922;80;21014;-37
2021/10/24 03:20:41;;;;;;;10.88;4.53;;;;;;;7.15;61.80;100031.55;1776636;80;21504;-37
2021/10/24 03:23:07;;;;;;;6.90;3.87;;;;;;;7.12;61.80;100018.14;1776569;80;21011;-37
2021/10/24 03:25:34;;;;;;;11.38;4.80;;;;;;;7.12;61.87;100026.23;1776581;80;21552;-37
2021/10/24 03:28:01;;;;;;;12.10;4.97;;;;;;;7.15;61.89;100028.30;1776900;80;21046;-37
2021/10/24 03:30:28;;;;;;;9.63;4.35;;;;;;;7.20;61.89;100028.14;1776701;80;21549;-37
2021/10/24 03:32:54;;;;;;;10.98;4.35;;;;;;;7.21;61.86;100030.28;1777160;79;21817;-37
2021/10/24 03:35:21;;;;;;;10.72;4.45;;;;;;;7.22;61.77;100027.25;1755321;81;21091;-37
2021/10/24 03:37:48;;;;;;;11.45;4.58;;;;;;;7.23;61.58;100035.58;1777202;79;21005;-37
2021/10/24 03:40:15;;;;;;;11.48;4.42;;;;;;;7.24;61.69;100035.02;1755108;81;21011;-37
2021/10/24 03:42:42;;;;;;;8.85;4.30;;;;;;;7.24;61.57;100034.47;1776766;80;21030;-37
2021/10/24 03:45:10;;;;;;;13.95;4.65;;;;;;;7.21;61.77;100041.07;1755339;81;21112;-37
2021/10/24 03:47:38;;;;;;;13.10;4.80;;;;;;;7.19;61.80;100046.77;1776653;80;21005;-38
2021/10/24 03:50:06;;;;;;;12.75;4.10;;;;;;;7.15;61.83;100045.83;1755450;81;21060;-37
2021/10/24 03:52:33;;;;;;;12.03;4.25;;;;;;;7.13;62.03;100044.00;1773839;80;21082;-37
2021/10/24 03:55:00;;;;;;;9.50;4.42;;;;;;;7.16;61.86;100047.42;1773689;80;20991;-37
2021/10/24 03:57:27;;;;;;;14.58;4.85;;;;;;;7.20;61.91;100044.31;1773533;80;21112;-37
2021/10/24 03:59:54;;;;;;;15.05;5.45;;;;;;;7.21;61.77;100047.81;1773681;80;20939;-37
2021/10/24 04:02:21;;;;;;;12.60;5.20;;;;;;;7.20;61.91;100047.02;1773464;80;21007;-37
2021/10/24 04:04:48;;;;;;;13.22;5.53;;;;;;;7.19;61.93;100048.67;1773783;80;21027;-37
2021/10/24 04:07:15;;;;;;;13.35;5.03;;;;;;;7.18;62.00;100051.92;1773761;80;21043;-37
2021/10/24 04:09:43;;;;;;;12.20;5.92;;;;;;;7.16;61.82;100054.16;1773392;80;21138;-37
2021/10/24 04:12:11;;;;;;;14.13;6.17;;;;;;;7.15;61.92;100059.87;1773701;80;21025;-37
2021/10/24 04:14:37;;;;;;;12.50;5.25;;;;;;;7.12;62.08;100061.28;1773807;80;21005;-37
2021/10/24 04:17:04;;;;;;;14.15;5.55;;;;;;;7.10;62.17;100065.42;1773592;80;20991;-37
2021/10/24 04:19:32;;;;;;;12.15;4.80;;;;;;;7.15;62.25;100063.36;1769406;80;21022;-37
2021/10/24 04:22:00;;;;;;;11.18;5.10;;;;;;;7.21;61.93;100066.69;1773805;80;21123;-37
2021/10/24 04:24:28;;;;;;;10.93;4.90;;;;;;;7.24;61.92;100066.03;1773785;80;21579;-37
2021/10/24 04:26:56;;;;;;;9.70;4.72;;;;;;;7.26;61.98;100065.17;1774028;80;20990;-37
2021/10/24 04:29:23;;;;;;;11.65;4.62;;;;;;;7.29;61.82;100059.92;1773814;80;21042;-37
2021/10/24 04:31:51;;;;;;;11.20;5.25;;;;;;;7.29;61.71;100062.62;1773752;80;21054;-37
2021/10/24 04:34:17;;;;;;;11.30;4.92;;;;;;;7.28;61.83;100065.08;1773824;80;21142;-37
2021/10/24 04:36:44;;;;;;;12.05;4.72;;;;;;;7.28;61.64;100069.12;1773510;80;20998;-37
2021/10/24 04:39:11;;;;;;;11.30;4.78;;;;;;;7.25;61.78;100064.93;1773623;80;20971;-37
2021/10/24 04:41:38;;;;;;;11.90;4.20;;;;;;;7.21;61.85;100068.03;1773470;80;21042;-36
2021/10/24 04:44:05;;;;;;;10.82;4.10;;;;;;;7.22;62.00;100069.05;1773614;80;21555;-37
2021/10/24 04:46:32;;;;;;;9.50;4.10;;;;;;;7.27;61.93;100079.67;1773532;80;21827;-37
2021/10/24 04:48:58;;;;;;;11.78;4.60;;;;;;;7.34;61.67;100077.84;1773926;80;20968;-36
2021/10/24 04:51:25;;;;;;;9.73;4.30;;;;;;;7.34;61.72;100078.64;1773430;79;21084;-37
2021/10/24 04:53:51;;;;;;;8.68;3.98;;;;;;;7.33;61.74;100085.14;1745395;80;20986;-37
2021/10/24 04:56:20;;;;;;;12.53;4.28;;;;;;;7.33;61.69;100088.39;1773643;80;21069;-37
2021/10/24 04:58:47;;;;;;;10.88;4.40;;;;;;;7.31;61.83;100097.38;1791804;78;21768;-37
2021/10/24 05:01:14;;;;;;;7.85;4.30;;;;;;;7.28;61.83;100096.09;1805422;79;21473;-37
2021/10/24 05:03:42;;;;;;;11.45;4.55;;;;;;;7.25;61.94;100104.83;1805659;79;21604;-37
2021/10/24 05:06:10;;;;;;;7.95;3.77;;;;;;;7.23;62.11;100108.95;1805470;79;20919;-37
2021/10/24 05:08:37;;;;;;;11.85;4.50;;;;;;;7.23;62.05;100107.59;1805376;79;21026;-37
2021/10/24 05:11:05;;;;;;;8.50;3.50;;;;;;;7.26;62.00;100118.53;1805319;79;21007;-37
2021/10/24 05:13:33;;;;;;;10.38;4.03;;;;;;;7.30;61.97;100123.55;1805176;79;20923;-37
2021/10/24 05:16:00;;;;;;;9.23;4.12;;;;;;;7.32;62.03;100121.31;1805599;79;21544;-37
2021/10/24 05:18:28;;;;;;;11.43;4.40;;;;;;;7.31;62.04;100127.81;1805188;79;20971;-37
2021/10/24 05:20:55;;;;;;;11.97;4.35;;;;;;;7.28;61.97;100123.06;1805480;79;21019;-37
2021/10/24 05:23:22;;;;;;;6.65;3.40;;;;;;;7.28;62.05;100133.05;1804068;79;21143;-37
2021/10/24 05:25:49;;;;;;;7.75;4.00;;;;;;;7.28;62.13;100129.81;1805561;79;21508;-37
2021/10/24 05:28:15;;;;;;;8.05;3.77;;;;;;;7.28;62.36;100143.30;1805397;79;21031;-37
2021/10/24 05:30:44;;;;;;;7.80;3.37;;;;;;;7.29;62.42;100142.73;1805289;79;21019;-37
2021/10/24 05:33:11;;;;;;;8.80;3.50;;;;;;;7.31;62.70;100154.78;1805220;79;21532;-37
2021/10/24 05:35:39;;;;;;;6.22;3.17;;;;;;;7.36;62.75;100153.27;1801067;79;21177;-37
2021/10/24 05:38:05;;;;;;;9.43;3.62;;;;;;;7.38;62.28;100156.45;1805270;79;20967;-37
2021/10/24 05:40:35;;;;;;;7.25;3.47;;;;;;;7.36;62.33;100164.06;1805512;79;21023;-37
2021/10/24 05:43:04;;;;;;;7.20;3.58;;;;;;;7.37;62.41;100165.66;1804783;79;21062;-37
2021/10/24 05:45:30;;;;;;;7.15;3.55;;;;;;;7.36;62.52;100170.80;1805538;79;21505;-36
2021/10/24 05:47:59;;;;;;;7.58;3.50;;;;;;;7.35;62.71;100177.34;1805515;79;21239;-37
2021/10/24 05:50:31;;;;;;;9.10;3.52;;;;;;;7.36;63.53;100178.90;1797906;79;21477;-37
2021/10/24 05:52:58;;;;;;;8.63;3.17;;;;;;;7.36;63.75;100188.34;1778334;80;21002;-37
2021/10/24 05:55:25;;;;;;;10.32;3.30;;;;;;;7.42;64.29;100188.42;1779395;80;21038;-37
2021/10/24 05:57:52;;;;;;;7.95;3.62;;;;;;;7.47;64.49;100188.81;1779574;80;20987;-37
2021/10/24 06:00:39;;;;;;;8.73;3.92;;;;;;;7.45;64.72;100188.91;1770631;80;21770;-37
2021/10/24 06:03:07;;;;;;;8.73;3.75;;;;;;;7.41;64.76;100185.48;1742451;80;21505;-38
2021/10/24 06:06:49;;;;;;;7.67;3.87;;;;;;;7.50;64.83;100196.84;1801514;77;22518;-37
2021/10/24 06:09:15;;;;;;;7.37;3.65;;;;;;;7.45;64.90;100206.45;1781061;80;20974;-37
2021/10/24 06:11:47;;;;;;;7.45;3.77;;;;;;;7.47;64.83;100208.26;1780978;80;21618;-36
2021/10/24 06:14:15;;;;;;;9.30;3.27;;;;;;;7.50;64.46;100203.04;1780916;80;21074;-36
2021/10/24 06:16:43;;;;;;;5.40;3.40;;;;;;;7.52;64.35;100213.49;1780902;80;21607;-37
2021/10/24 06:19:10;;;;;;;6.95;3.77;;;;;;;7.52;64.34;100212.94;1781031;80;20974;-36
2021/10/24 06:21:37;;;;;;;7.97;3.90;;;;;;;7.56;64.29;100213.09;1780980;80;21018;-36
2021/10/24 06:24:04;;;;;;;6.25;3.45;;;;;;;7.57;64.41;100211.98;1781145;80;21125;-36
2021/10/24 06:26:31;;;;;;;5.78;2.98;;;;;;;7.58;63.97;100216.28;1780886;80;20923;-36
2021/10/24 06:28:59;;;;;;;8.58;3.42;;;;;;;7.57;63.77;100221.43;1781068;80;20923;-36
2021/10/24 06:31:26;;;;;;;6.03;3.30;;;;;;;7.57;64.02;100220.08;1780705;80;21185;-37
2021/10/24 06:34:01;;;;;;;6.30;3.00;;;;;;;7.66;63.99;100217.61;1735921;80;21054;-37
2021/10/24 06:36:31;;;;;;;4.58;2.62;;;;;;;7.77;63.54;100228.88;1757626;80;21150;-36
2021/10/24 06:39:12;;;;;;;5.40;2.95;;;;;;;7.84;62.44;100229.20;1777789;80;21038;-37
2021/10/24 06:41:40;;;;;;;6.30;3.22;;;;;;;7.84;61.18;100233.26;1745358;80;21026;-37
2021/10/24 06:44:15;;;;;;;9.00;3.10;;;;;;;7.81;61.34;100232.53;1779894;80;21031;-37
2021/10/24 06:46:46;;;;;;;6.55;2.92;;;;;;;7.77;61.32;100237.78;1780798;80;21015;-37
2021/10/24 06:49:23;;;;;;;4.10;2.72;;;;;;;7.79;61.55;100242.28;1692229;84;21142;-37
2021/10/24 06:51:52;;;;;;;5.28;2.60;;;;;;;7.78;60.90;100250.72;1760949;80;20984;-37
2021/10/24 06:54:37;;;;;;;4.83;2.67;;;;;;;7.76;60.64;100250.23;1722173;83;21025;-37
2021/10/24 06:57:22;;;;;;;5.95;2.72;;;;;;;7.72;60.62;100250.09;1722452;83;21045;-37
2021/10/24 06:59:58;;;;;;;6.87;2.83;;;;;;;7.69;60.80;100248.03;1722310;83;21033;-37
2021/10/24 07:02:27;;;;;;;4.28;2.37;;;;;;;7.69;60.45;100249.38;1682331;83;21144;-36
2021/10/24 07:05:12;;;;;;;3.58;2.42;;;;;;;7.73;60.05;100252.23;1721963;83;20962;-37
2021/10/24 07:07:42;;;;;;;5.00;2.33;;;;;;;7.76;60.13;100255.08;1720915;83;20965;-37
2021/10/24 07:10:11;;;;;;;5.95;2.40;;;;;;;7.79;59.42;100261.18;1738267;81;21084;-37
2021/10/24 07:12:38;;;;;;;4.90;2.10;;;;;;;7.81;59.11;100266.27;1752602;81;21040;-37
2021/10/24 07:15:07;;;;;;;5.03;2.55;;;;;;;7.85;59.31;100261.81;1752092;81;21531;-36
2021/10/24 07:17:35;;;;;;;4.42;2.17;;;;;;;7.93;59.42;100260.23;1751671;81;21074;-37
2021/10/24 07:20:07;;;;;;;5.30;2.22;;;;;;;8.00;58.50;100264.58;1751467;82;20993;-37
2021/10/24 07:22:37;;;;;;;3.55;1.70;;;;;;;8.06;58.78;100269.50;1749902;82;20972;-37
2021/10/24 07:25:23;;;;;;;4.00;1.82;;;;;;;8.09;58.09;100264.80;1751514;82;22126;-36
2021/10/24 07:27:50;;;;;;;4.95;1.77;;;;;;;8.13;57.69;100271.73;1751562;82;21132;-36
2021/10/24 07:30:17;;;;;;;3.37;2.10;;;;;;;8.16;57.62;100275.92;1751425;82;21075;-36
2021/10/24 07:32:48;;;;;;;3.05;1.90;;;;;;;8.22;57.55;100271.16;1751135;82;21024;-39
2021/10/24 07:35:20;;;;;;;5.03;2.00;;;;;;;8.29;57.19;100280.37;1727891;82;20968;-36
2021/10/24 07:37:47;;;;;;;3.50;1.70;;;;;;;8.31;56.07;100280.61;1751730;82;21583;-37
2021/10/24 07:40:14;;;;;;;2.95;1.95;;;;;;;8.25;56.03;100287.50;1751780;82;21138;-37
2021/10/24 07:42:41;;;;;;;3.65;1.55;;;;;;;8.20;55.99;100282.82;1751484;82;21007;-37
2021/10/24 07:45:09;;;;;;;3.67;1.65;;;;;;;8.18;55.96;100285.83;1751692;82;21475;-37
2021/10/24 07:47:38;;;;;;;3.72;1.82;;;;;;;8.23;55.96;100276.21;1751641;82;21084;-37
2021/10/24 07:50:09;;;;;;;3.33;2.17;;;;;;;8.30;56.26;100274.41;1751525;82;21020;-37
2021/10/24 07:52:38;;;;;;;3.55;2.00;;;;;;;8.41;55.83;100279.72;1751587;82;21130;-37
2021/10/24 07:55:08;;;;;;;3.12;1.80;;;;;;;8.52;55.67;100285.57;1749270;82;20969;-37
2021/10/24 07:57:35;;;;;;;4.03;1.83;;;;;;;8.57;55.34;100292.92;1751785;82;20996;-37
2021/10/24 08:00:06;;;;;;;4.67;1.77;;;;;;;8.61;54.42;100292.53;1751358;82;21028;-37
2021/10/24 08:02:35;;;;;;;2.35;1.60;;;;;;;8.63;54.37;100294.89;1750407;82;21080;-36
2021/10/24 08:05:05;;;;;;;1.82;1.40;;;;;;;8.63;54.30;100296.25;1751172;82;21545;-37
2021/10/24 08:07:39;;;;;;;3.83;1.30;;;;;;;8.62;53.84;100300.85;1716833;83;21571;-37
2021/10/24 08:10:07;;;;;;;4.15;2.12;;;;;;;8.59;53.70;100304.77;1716994;83;20946;-37
2021/10/24 08:12:37;;;;;;;4.72;2.22;;;;;;;8.57;53.89;100306.98;1717089;83;21311;-37
2021/10/24 08:15:06;;;;;;;2.35;1.70;;;;;;;8.60;54.01;100307.16;1717092;83;21563;-36
2021/10/24 08:17:33;;;;;;;4.87;2.12;;;;;;;8.68;53.80;100308.23;1717020;83;21117;-37
2021/10/24 08:20:03;;;;;;;2.60;1.57;;;;;;;8.76;53.88;100311.48;1714895;83;21004;-37
2021/10/24 08:22:32;;;;;;;3.87;1.75;;;;;;;8.86;53.28;100315.16;1717487;83;20969;-37
2021/10/24 08:25:00;;;;;;;3.98;1.80;;;;;;;8.92;52.85;100313.07;1717222;83;21358;-37
2021/10/24 08:27:31;;;;;;;2.47;1.55;;;;;;;8.94;52.22;100307.59;1716985;83;20977;-37
2021/10/24 08:30:01;;;;;;;3.80;1.87;;;;;;;8.98;52.38;100315.28;1715022;83;21985;-37
2021/10/24 08:32:42;;;;;;;2.80;1.98;;;;;;;9.06;52.61;100319.84;1716619;83;21586;-37
2021/10/24 08:35:09;;;;;;;2.70;1.60;;;;;;;9.19;52.20;100324.02;1716798;83;21046;-37
2021/10/24 08:37:35;;;;;;;2.17;1.47;;;;;;;9.28;50.87;100324.77;1716976;83;21053;-37
2021/10/24 08:40:06;;;;;;;2.85;1.17;;;;;;;9.32;50.59;100327.05;1716163;83;21044;-37
2021/10/24 08:42:38;;;;;;;2.85;1.45;;;;;;;9.36;50.31;100322.55;1717044;83;21142;-37
2021/10/24 08:45:04;;;;;;;2.07;1.23;;;;;;;9.51;49.75;100324.69;1716881;83;21002;-37
2021/10/24 08:47:31;;;;;;;1.62;1.27;;;;;;;9.51;49.75;100324.69;1716861;83;21049;-37
2021/10/24 08:49:58;;;;;;;3.47;2.10;;;;;;;9.55;48.90;100332.38;1716975;83;21547;-37
2021/10/24 08:52:25;;;;;;;3.47;1.90;;;;;;;9.53;49.27;100338.70;1745489;82;21033;-37
2021/10/24 08:54:53;;;;;;;2.55;1.60;;;;;;;9.48;48.95;100336.98;1746723;81;21078;-37
2021/10/24 08:57:27;;;;;;;3.22;1.20;;;;;;;9.42;49.33;100338.28;1746640;82;21004;-37
2021/10/24 08:59:55;;;;;;;3.77;1.42;;;;;;;9.37;49.63;100359.33;1746330;81;21465;-36
2021/10/24 09:02:23;;;;;;;3.83;1.40;;;;;;;9.28;50.70;100369.41;1746781;81;21085;-36
2021/10/24 09:04:51;;;;;;;3.15;1.42;;;;;;;9.10;51.21;100370.05;1746835;80;21814;-37
2021/10/24 09:07:19;;;;;;;2.77;1.05;;;;;;;8.91;50.73;100376.37;1746713;81;21078;-37
2021/10/24 09:09:46;;;;;;;3.25;0.85;;;;;;;8.72;50.47;100379.46;1742061;81;20998;-37
2021/10/24 09:12:14;;;;;;;4.05;1.20;;;;;;;8.53;50.92;100380.38;1746885;82;21043;-36
2021/10/24 09:14:55;;;;;;;2.80;1.07;;;;;;;8.37;50.94;100378.75;1746728;81;21472;-37
2021/10/24 09:17:27;;;;;;;1.23;0.90;;;;;;;8.24;51.22;100382.36;1746810;82;21028;-37
2021/10/24 09:19:57;;;;;;;2.67;0.98;;;;;;;8.15;51.16;100389.13;1746552;82;21136;-37
2021/10/24 09:22:38;;;;;;;1.80;0.93;;;;;;;8.12;51.00;100387.62;1746553;82;20977;-37
2021/10/24 09:25:17;;;;;;;2.15;0.93;;;;;;;8.07;50.15;100391.28;1746864;82;21002;-37
2021/10/24 09:27:51;;;;;;;3.12;1.00;;;;;;;8.02;50.04;100388.73;1746975;82;20989;-36
2021/10/24 09:30:28;;;;;;;1.60;0.90;;;;;;;8.00;49.69;100400.39;1746841;82;20997;-37
2021/10/24 09:33:01;;;;;;;1.72;1.00;;;;;;;7.98;50.35;100399.94;1746872;82;21634;-36
2021/10/24 09:35:40;;;;;;;1.27;0.90;;;;;;;7.99;51.87;100404.20;1746542;82;20998;-37
2021/10/24 09:38:22;;;;;;;1.10;0.90;;;;;;;8.00;51.93;100405.79;1746849;82;21024;-37
2021/10/24 09:40:57;;;;;;;1.72;0.78;;;;;;;7.97;51.92;100409.14;1735417;82;21037;-36
2021/10/24 09:43:32;;;;;;;2.02;1.00;;;;;;;7.98;51.73;100409.94;1747345;82;20985;-37
2021/10/24 09:46:05;;;;;;;3.35;1.80;;;;;;;7.97;51.85;100406.98;1746995;82;21125;-36
2021/10/24 09:48:34;;;;;;;4.65;1.10;;;;;;;7.95;52.15;100418.65;1746920;80;21532;-37
2021/10/24 09:51:13;;;;;;;1.32;0.90;;;;;;;7.91;52.49;100409.05;1735175;82;20981;-36
2021/10/24 09:53:43;;;;;;;2.12;1.00;;;;;;;7.91;52.73;100415.80;1716869;83;20973;-37
2021/10/24 09:56:13;;;;;;;1.50;1.10;;;;;;;7.92;52.97;100417.39;1717119;82;21100;-37
2021/10/24 09:58:44;;;;;;;;;;;;;;;7.91;52.91;100415.80;1719586;83;21138;-37
2021/10/24 10:01:15;;;;;;;2.52;1.62;;;;;;;7.86;53.27;100414.04;1716743;83;20147;-37
2021/10/24 10:03:41;;;;;;;;;;;;;;;7.78;53.79;100409.98;1719790;83;21522;-36
2021/10/24 10:06:08;;;;;;;1.90;1.00;;;;;;;7.86;53.91;100408.64;1719969;82;20174;-37
2021/10/24 10:08:43;;;;;;;2.42;1.00;;;;;;;7.86;53.96;100417.30;1735410;82;21088;-37
2021/10/24 10:11:30;;;;;;;2.90;1.45;;;;;;;7.96;53.10;100407.54;1735401;81;21151;-37
2021/10/24 10:14:07;;;;;;;2.92;1.20;;;;;;;8.04;52.55;100416.75;1735679;82;20988;-37
2021/10/24 10:16:40;;;;;;;1.45;1.20;;;;;;;8.10;51.80;100408.19;1714870;82;21601;-36
2021/10/24 10:19:12;;;;;;;1.32;0.80;;;;;;;8.15;51.58;100408.03;1739325;81;20987;-37
2021/10/24 10:21:41;;;;;;;1.70;1.30;;;;;;;8.23;50.42;100409.92;1734839;82;21538;-37
2021/10/24 10:24:10;;;;;;;1.12;0.80;;;;;;;8.21;49.77;100405.41;1735821;82;21146;-36
2021/10/24 10:26:43;;;;;;;2.42;1.05;;;;;;;8.17;50.13;100405.82;1736001;82;20972;-37
2021/10/24 10:29:15;;;;;;;1.20;1.00;;;;;;;8.13;50.18;100410.24;1735963;82;20941;-37
2021/10/24 10:32:06;;;;;;;2.40;0.80;;;;;;;8.17;50.19;100411.77;1735544;82;21023;-37
2021/10/24 10:35:00;;;;;;;1.35;0.80;;;;;;;8.31;49.84;100415.69;1727937;82;21052;-36
2021/10/24 10:38:03;;;;;;;0.85;0.65;;;;;;;8.55;49.71;100407.89;1735445;82;21182;-37
2021/10/24 10:40:33;;;;;;;0.60;0.60;;;;;;;8.83;48.83;100411.80;1735525;82;21010;-37
2021/10/24 10:43:20;;;;;;;1.57;0.80;;;;;;;8.96;47.97;100407.30;1735704;82;21491;-36
2021/10/24 10:45:56;;;;;;;2.15;0.85;;;;;;;9.01;47.85;100411.19;1735835;82;21550;-37
2021/10/24 10:48:40;;;;;;;2.08;1.30;;;;;;;9.00;47.72;100403.66;1735522;82;21020;-36
2021/10/24 10:51:23;;;;;;;1.32;0.90;;;;;;;9.01;48.06;100408.48;1735728;81;21104;-37
2021/10/24 10:53:54;;;;;;;3.35;1.02;;;;;;;8.95;47.81;100405.19;1735672;81;21056;-37
2021/10/24 10:56:24;;;;;;;3.50;1.35;;;;;;;8.80;47.99;100413.81;1735696;82;21027;-37
2021/10/24 10:58:55;;;;;;;1.65;1.02;;;;;;;8.65;48.83;100419.72;1735676;82;20976;-37
2021/10/24 11:01:33;;;;;;;2.10;1.32;;;;;;;8.57;49.07;100425.36;1735284;82;21017;-37
2021/10/24 11:04:19;;;;;;;2.58;1.10;;;;;;;8.55;49.39;100425.45;1736013;82;21175;-37
2021/10/24 11:06:56;;;;;;;2.22;0.95;;;;;;;8.53;49.60;100423.61;1735612;81;21032;-37
2021/10/24 11:09:44;;;;;;;2.42;1.40;;;;;;;8.45;50.19;100429.83;1735923;82;21027;-36
2021/10/24 11:12:34;;;;;;;1.77;1.22;;;;;;;8.32;50.94;100435.65;1736111;82;20956;-37
2021/10/24 11:15:13;;;;;;;2.47;1.37;;;;;;;8.16;52.12;100433.94;1735710;82;21072;-36
2021/10/24 11:17:47;;;;;;;2.60;1.17;;;;;;;7.93;53.40;100460.84;1735620;81;21149;-37
2021/10/24 11:20:22;;;;;;;1.30;0.78;;;;;;;7.71;55.75;100467.67;1735447;82;20997;-37
2021/10/24 11:22:57;;;;;;;0.75;0.60;;;;;;;7.46;56.41;100474.56;1735411;82;21515;-37
2021/10/24 11:25:29;;;;;;;0.70;0.70;;;;;;;7.23;57.83;100477.87;1735472;82;20969;-37
2021/10/24 11:27:58;;;;;;;1.00;0.65;;;;;;;7.01;59.92;100477.13;1735846;82;21879;-37
2021/10/24 11:30:25;;;;;;;0.95;0.70;;;;;;;6.86;61.33;100480.44;1735832;82;21102;-36
2021/10/24 11:32:53;;;;;;;1.35;0.88;;;;;;;6.80;61.65;100488.40;1735493;81;20964;-37
2021/10/24 11:35:22;;;;;;;1.75;0.80;;;;;;;6.66;61.90;100486.86;1735662;82;21028;-37
2021/10/24 11:38:01;;;;;;;0.82;0.70;;;;;;;6.57;62.11;100490.05;1735816;82;21301;-37
2021/10/24 11:40:30;;;;;;;1.27;0.93;;;;;;;6.46;62.26;100484.89;1735613;82;21047;-37
2021/10/24 11:43:04;;;;;;;2.42;1.25;;;;;;;6.34;62.60;100491.34;1736209;82;21114;-39
2021/10/24 11:45:44;;;;;;;2.08;1.20;;;;;;;6.25;62.61;100486.44;1735553;82;20968;-38
2021/10/24 11:48:24;;;;;;;2.43;1.20;;;;;;;6.22;62.57;100485.70;1744471;79;21012;-38
2021/10/24 11:51:06;;;;;;;2.23;1.03;;;;;;;6.24;62.23;100479.48;1766570;81;20952;-38